createdAt,value
2022-10-12T00:01:54.506Z,11.45
2022-10-12T00:04:21.264Z,11.42
2022-10-12T00:06:48.076Z,11.51
2022-10-12T00:09:14.905Z,11.48
2022-10-12T00:11:42.396Z,11.31
2022-10-12T00:14:09.295Z,11.39
2022-10-12T00:16:36.923Z,11.31
2022-10-12T00:19:04.800Z,11.29
2022-10-12T00:21:31.809Z,11.37
2022-10-12T00:24:00.864Z,11.42
2022-10-12T00:26:29.225Z,11.46
2022-10-12T00:28:58.407Z,11.60
2022-10-12T00:31:26.116Z,11.49
2022-10-12T00:33:53.327Z,11.49
2022-10-12T00:36:23.490Z,11.44
2022-10-12T00:38:52.164Z,11.38
2022-10-12T00:41:23.791Z,11.22
2022-10-12T00:43:57.615Z,11.23
2022-10-12T00:46:39.361Z,11.18
2022-10-12T00:49:12.449Z,11.25
2022-10-12T00:51:41.891Z,11.23
2022-10-12T00:54:14.379Z,11.25
2022-10-12T00:56:44.149Z,11.22
2022-10-12T00:59:23.017Z,11.27
2022-10-12T01:01:50.867Z,11.37
2022-10-12T01:04:17.893Z,11.55
2022-10-12T01:06:47.366Z,11.43
2022-10-12T01:09:14.833Z,11.34
2022-10-12T01:11:43.743Z,11.53
2022-10-12T01:14:10.853Z,11.53
2022-10-12T01:16:57.231Z,11.45
2022-10-12T01:19:42.770Z,11.46
2022-10-12T01:22:17.933Z,11.49
2022-10-12T01:24:47.576Z,11.41
2022-10-12T01:27:48.327Z,11.34
2022-10-12T01:30:18.441Z,11.20
2022-10-12T01:33:14.323Z,11.07
2022-10-12T01:35:54.115Z,11.02
2022-10-12T01:38:53.762Z,11.12
2022-10-12T01:41:26.962Z,11.15
2022-10-12T01:43:55.140Z,11.22
2022-10-12T01:46:21.703Z,11.11
2022-10-12T01:48:54.858Z,11.13
2022-10-12T01:51:36.313Z,11.15
2022-10-12T01:54:15.705Z,11.07
2022-10-12T01:57:30.509Z,11.14
2022-10-12T02:00:08.084Z,11.03
2022-10-12T02:02:34.715Z,11.14
2022-10-12T02:05:18.950Z,11.14
2022-10-12T02:07:52.319Z,11.04
2022-10-12T02:10:27.793Z,10.95
2022-10-12T02:12:57.331Z,11.05
2022-10-12T02:15:27.057Z,11.19
2022-10-12T02:17:53.927Z,11.04
2022-10-12T02:20:24.305Z,10.88
2022-10-12T02:22:52.450Z,10.87
2022-10-12T02:25:23.750Z,11.04
2022-10-12T02:27:59.238Z,11.03
2022-10-12T02:30:26.606Z,11.12
2022-10-12T02:33:06.464Z,11.05
2022-10-12T02:35:39.942Z,10.99
2022-10-12T02:38:16.307Z,10.95
2022-10-12T02:40:58.514Z,10.87
2022-10-12T02:43:35.074Z,10.97
2022-10-12T02:46:04.613Z,11.02
2022-10-12T02:48:32.189Z,10.99
2022-10-12T02:51:00.904Z,10.94
2022-10-12T02:53:30.466Z,10.91
2022-10-12T02:56:03.256Z,10.93
2022-10-12T02:58:30.153Z,10.87
2022-10-12T03:00:56.925Z,10.87
2022-10-12T03:03:23.871Z,10.96
2022-10-12T03:05:50.804Z,10.89
2022-10-12T03:08:17.510Z,11.13
2022-10-12T03:10:44.218Z,10.99
2022-10-12T03:13:11.032Z,10.97
2022-10-12T03:15:37.887Z,10.95
2022-10-12T03:18:05.064Z,10.85
2022-10-12T03:20:31.990Z,10.89
2022-10-12T03:22:58.691Z,10.88
2022-10-12T03:25:26.470Z,10.78
2022-10-12T03:27:53.322Z,10.77
2022-10-12T03:30:20.005Z,10.75
2022-10-12T03:32:46.681Z,10.58
2022-10-12T03:35:13.702Z,10.55
2022-10-12T03:37:40.841Z,10.34
2022-10-12T03:40:08.633Z,10.01
2022-10-12T03:42:35.397Z,9.92
2022-10-12T03:45:02.100Z,9.85
2022-10-12T03:47:28.795Z,9.78
2022-10-12T03:49:55.628Z,9.78
2022-10-12T03:52:22.635Z,9.69
2022-10-12T03:54:49.356Z,9.64
2022-10-12T03:57:16.112Z,9.47
2022-10-12T03:59:43.312Z,9.49
2022-10-12T04:02:14.362Z,9.51
2022-10-12T04:04:43.291Z,9.46
2022-10-12T04:07:10.115Z,9.48
2022-10-12T04:09:37.175Z,9.41
2022-10-12T04:12:04.158Z,9.40
2022-10-12T04:14:31.000Z,9.28
2022-10-12T04:16:57.917Z,9.24
2022-10-12T04:19:24.595Z,9.16
2022-10-12T04:21:51.352Z,9.25
2022-10-12T04:24:18.157Z,9.13
2022-10-12T04:26:44.896Z,9.05
2022-10-12T04:29:13.920Z,8.93
2022-10-12T04:31:41.297Z,8.89
2022-10-12T04:34:09.805Z,8.88
2022-10-12T04:36:36.489Z,8.86
2022-10-12T04:39:03.349Z,8.84
2022-10-12T04:41:30.220Z,8.84
2022-10-12T04:43:57.092Z,8.77
2022-10-12T04:46:23.831Z,8.68
2022-10-12T04:48:50.681Z,8.60
2022-10-12T04:51:17.397Z,8.57
2022-10-12T04:53:43.994Z,8.59
2022-10-12T04:56:14.757Z,8.67
2022-10-12T04:58:41.571Z,8.55
2022-10-12T05:01:08.280Z,8.58
2022-10-12T05:03:39.480Z,8.65
2022-10-12T05:06:08.445Z,8.54
2022-10-12T05:08:35.299Z,8.41
2022-10-12T05:11:02.081Z,8.36
2022-10-12T05:13:28.944Z,8.28
2022-10-12T05:15:55.741Z,8.12
2022-10-12T05:18:22.431Z,8.15
2022-10-12T05:20:52.184Z,8.07
2022-10-12T05:23:21.296Z,8.00
2022-10-12T05:25:48.053Z,7.97
2022-10-12T05:28:14.788Z,7.97
2022-10-12T05:30:41.585Z,8.01
2022-10-12T05:33:08.525Z,8.05
2022-10-12T05:35:35.347Z,8.05
2022-10-12T05:38:02.033Z,8.22
2022-10-12T05:40:29.696Z,8.36
2022-10-12T05:42:58.561Z,8.23
2022-10-12T05:45:27.873Z,8.23
2022-10-12T05:47:54.586Z,8.22
2022-10-12T05:50:21.507Z,8.23
2022-10-12T05:52:48.571Z,8.17
2022-10-12T05:55:15.375Z,8.30
2022-10-12T05:57:42.169Z,8.28
2022-10-12T06:00:09.484Z,8.13
2022-10-12T06:02:37.342Z,8.14
2022-10-12T06:05:04.722Z,8.09
2022-10-12T06:07:31.563Z,8.00
2022-10-12T06:09:58.260Z,7.97
2022-10-12T06:12:24.935Z,7.99
2022-10-12T06:14:52.563Z,8.02
2022-10-12T06:17:19.285Z,8.10
2022-10-12T06:19:46.157Z,8.10
2022-10-12T06:22:12.828Z,8.11
2022-10-12T06:24:39.482Z,8.22
2022-10-12T06:27:06.178Z,8.26
2022-10-12T06:29:33.123Z,8.29
2022-10-12T06:31:59.852Z,8.29
2022-10-12T06:34:26.639Z,8.38
2022-10-12T06:36:54.175Z,8.46
2022-10-12T06:39:25.603Z,8.53
2022-10-12T06:41:54.471Z,8.56
2022-10-12T06:44:22.575Z,8.76
2022-10-12T06:46:50.453Z,8.90
2022-10-12T06:49:17.779Z,9.12
2022-10-12T06:51:44.573Z,9.23
2022-10-12T06:54:11.349Z,9.33
2022-10-12T06:56:39.616Z,9.45
2022-10-12T06:59:06.828Z,9.51
2022-10-12T07:01:33.870Z,9.64
2022-10-12T07:04:01.092Z,9.75
2022-10-12T07:06:28.245Z,9.94
2022-10-12T07:08:55.634Z,9.88
2022-10-12T07:11:23.111Z,10.05
2022-10-12T07:13:50.131Z,10.22
2022-10-12T07:16:16.938Z,10.36
2022-10-12T07:18:43.711Z,10.38
2022-10-12T07:21:10.606Z,10.55
2022-10-12T07:23:41.323Z,10.70
2022-10-12T07:26:11.912Z,10.78
2022-10-12T07:28:38.840Z,10.81
2022-10-12T07:31:07.994Z,10.97
2022-10-12T07:33:35.441Z,11.08
2022-10-12T07:36:13.929Z,11.17
2022-10-12T07:38:45.307Z,11.27
2022-10-12T07:41:12.870Z,11.49
2022-10-12T07:43:39.524Z,11.58
2022-10-12T07:46:06.719Z,11.69
2022-10-12T07:48:34.302Z,11.82
2022-10-12T07:51:09.082Z,11.95
2022-10-12T07:53:37.822Z,11.98
2022-10-12T07:56:07.653Z,12.09
2022-10-12T07:58:34.412Z,12.02
2022-10-12T08:01:06.385Z,12.14
2022-10-12T08:03:33.209Z,12.21
2022-10-12T08:06:00.167Z,12.44
2022-10-12T08:08:26.912Z,12.57
2022-10-12T08:10:53.613Z,12.82
2022-10-12T08:13:20.321Z,12.74
2022-10-12T08:15:50.734Z,12.89
2022-10-12T08:18:17.810Z,13.21
2022-10-12T08:20:44.531Z,13.14
2022-10-12T08:23:11.265Z,13.33
2022-10-12T08:25:38.203Z,13.36
2022-10-12T08:28:05.471Z,13.18
2022-10-12T08:30:33.890Z,13.57
2022-10-12T08:33:00.715Z,13.52
2022-10-12T08:35:27.407Z,13.47
2022-10-12T08:37:54.439Z,13.80
2022-10-12T08:40:33.183Z,14.03
2022-10-12T08:43:11.229Z,14.03
2022-10-12T08:45:48.301Z,13.81
2022-10-12T08:48:23.180Z,14.11
2022-10-12T08:50:54.750Z,14.26
2022-10-12T08:53:36.087Z,14.46
2022-10-12T08:56:02.919Z,14.54
2022-10-12T08:58:37.360Z,14.59
2022-10-12T09:01:25.746Z,14.81
2022-10-12T09:04:33.292Z,15.01
2022-10-12T09:07:33.883Z,14.84
2022-10-12T09:10:31.817Z,14.97
2022-10-12T09:13:22.456Z,15.12
2022-10-12T09:16:00.636Z,15.16
2022-10-12T09:18:41.004Z,15.44
2022-10-12T09:21:14.027Z,15.32
2022-10-12T09:23:42.693Z,15.45
2022-10-12T09:26:36.885Z,15.51
2022-10-12T09:29:33.193Z,15.60
2022-10-12T09:32:13.188Z,15.75
2022-10-12T09:34:40.317Z,15.30
2022-10-12T09:37:12.463Z,14.93
2022-10-12T09:39:40.792Z,15.38
2022-10-12T09:42:09.695Z,15.53
2022-10-12T09:44:47.138Z,14.96
2022-10-12T09:47:33.307Z,15.61
2022-10-12T09:50:08.955Z,15.67
2022-10-12T09:52:35.523Z,15.15
2022-10-12T09:57:59.302Z,15.54
2022-10-12T10:00:26.269Z,15.34
2022-10-12T10:02:54.281Z,15.39
2022-10-12T10:05:25.882Z,15.32
2022-10-12T10:07:53.090Z,15.81
2022-10-12T10:10:29.455Z,15.35
2022-10-12T10:13:01.086Z,15.41
2022-10-12T10:15:38.744Z,15.67
2022-10-12T10:18:19.850Z,15.82
2022-10-12T10:21:00.775Z,15.83
2022-10-12T10:23:33.384Z,15.91
2022-10-12T10:26:07.104Z,15.83
2022-10-12T10:28:36.401Z,15.61
2022-10-12T10:31:17.125Z,15.68
2022-10-12T10:33:44.272Z,15.66
2022-10-12T10:36:22.339Z,15.41
2022-10-12T10:39:05.541Z,15.18
2022-10-12T10:41:37.593Z,15.29
2022-10-12T10:44:06.501Z,15.48
2022-10-12T10:46:36.292Z,15.42
2022-10-12T10:49:07.443Z,15.20
2022-10-12T10:51:49.340Z,15.49
2022-10-12T10:54:22.127Z,15.28
2022-10-12T10:56:56.696Z,15.60
2022-10-12T10:59:51.775Z,15.58
2022-10-12T11:02:52.219Z,15.78
2022-10-12T11:05:27.337Z,15.71
2022-10-12T11:07:57.240Z,15.73
2022-10-12T11:10:35.541Z,15.74
2022-10-12T11:13:12.500Z,15.58
2022-10-12T11:15:48.564Z,15.84
2022-10-12T11:18:41.495Z,15.50
2022-10-12T11:21:13.358Z,15.69
2022-10-12T11:23:52.065Z,15.72
2022-10-12T11:26:39.104Z,15.62
2022-10-12T11:29:06.863Z,15.92
2022-10-12T11:31:39.814Z,15.65
2022-10-12T11:34:13.653Z,15.67
2022-10-12T11:37:01.050Z,15.49
2022-10-12T11:39:42.685Z,15.51
2022-10-12T11:42:21.952Z,15.61
2022-10-12T11:44:50.226Z,15.72
2022-10-12T11:47:36.154Z,15.76
2022-10-12T11:50:35.382Z,15.68
2022-10-12T11:53:06.269Z,15.79
2022-10-12T11:55:46.363Z,15.82
2022-10-12T11:58:56.346Z,15.84
2022-10-12T12:01:44.347Z,15.67
2022-10-12T12:04:42.761Z,15.73
2022-10-12T12:07:43.363Z,15.83
2022-10-12T12:10:25.310Z,15.54
2022-10-12T12:13:11.650Z,15.55
2022-10-12T12:15:43.690Z,15.98
2022-10-12T12:18:26.617Z,16.11
2022-10-12T12:21:05.768Z,15.98
2022-10-12T12:23:53.309Z,16.15
2022-10-12T12:26:29.659Z,16.31
2022-10-12T12:29:15.583Z,16.37
2022-10-12T12:31:43.216Z,16.49
2022-10-12T12:34:17.465Z,16.46
2022-10-12T12:36:46.674Z,16.34
2022-10-12T12:39:32.582Z,16.57
2022-10-12T12:42:04.971Z,16.08
2022-10-12T12:44:35.362Z,15.87
2022-10-12T12:47:01.956Z,16.17
2022-10-12T12:49:37.517Z,16.44
2022-10-12T12:52:10.905Z,16.25
2022-10-12T12:54:55.617Z,16.48
2022-10-12T12:57:40.910Z,16.51
2022-10-12T13:00:33.247Z,16.06
2022-10-12T13:03:28.553Z,15.90
2022-10-12T13:06:01.224Z,15.77
2022-10-12T13:08:46.501Z,16.03
2022-10-12T13:11:38.019Z,16.21
2022-10-12T13:14:35.598Z,16.17
2022-10-12T13:17:39.871Z,16.14
2022-10-12T13:20:22.753Z,15.90
2022-10-12T13:22:52.820Z,15.93
2022-10-12T13:25:33.186Z,15.81
2022-10-12T13:28:04.273Z,15.91
2022-10-12T13:30:31.024Z,15.92
2022-10-12T13:33:18.705Z,15.45
2022-10-12T13:35:51.516Z,15.31
2022-10-12T13:38:22.706Z,15.40
2022-10-12T13:41:08.302Z,15.57
2022-10-12T13:43:53.220Z,15.66
2022-10-12T13:46:43.557Z,15.84
2022-10-12T13:49:16.423Z,15.79
2022-10-12T13:51:45.280Z,15.92
2022-10-12T13:54:38.521Z,15.83
2022-10-12T13:57:34.192Z,15.77
2022-10-12T14:00:08.376Z,15.74
2022-10-12T14:02:35.346Z,15.70
2022-10-12T14:05:05.230Z,15.64
2022-10-12T14:07:35.809Z,15.55
2022-10-12T14:10:12.383Z,15.62
2022-10-12T14:12:40.269Z,15.60
2022-10-12T14:15:07.996Z,15.77
2022-10-12T14:17:44.600Z,15.81
2022-10-12T14:20:35.847Z,15.87
2022-10-12T14:23:10.656Z,15.56
2022-10-12T14:25:38.345Z,15.69
2022-10-12T14:28:06.998Z,15.75
2022-10-12T14:30:39.678Z,15.44
2022-10-12T14:33:32.691Z,15.28
2022-10-12T14:36:13.232Z,15.35
2022-10-12T14:38:46.269Z,15.33
2022-10-12T14:41:33.606Z,15.35
2022-10-12T14:44:16.111Z,15.48
2022-10-12T14:46:52.707Z,15.56
2022-10-12T14:49:25.333Z,15.45
2022-10-12T14:51:54.235Z,15.49
2022-10-12T14:54:21.262Z,15.44
2022-10-12T14:56:50.169Z,15.58
2022-10-12T14:59:16.944Z,15.50
2022-10-12T15:01:47.405Z,15.55
2022-10-12T15:04:17.018Z,15.37
2022-10-12T15:06:48.279Z,15.58
2022-10-12T15:09:17.342Z,15.43
2022-10-12T15:11:44.021Z,15.22
2022-10-12T15:14:11.882Z,15.28
2022-10-12T15:16:39.323Z,15.29
2022-10-12T15:19:06.003Z,15.21
2022-10-12T15:21:32.773Z,15.23
2022-10-12T15:23:59.398Z,15.07
2022-10-12T15:26:26.966Z,15.03
2022-10-12T15:28:53.782Z,14.94
2022-10-12T15:31:20.558Z,14.74
2022-10-12T15:33:47.290Z,14.54
2022-10-12T15:36:14.060Z,14.42
2022-10-12T15:38:40.879Z,14.25
2022-10-12T15:41:17.288Z,14.10
2022-10-12T15:43:43.988Z,14.00
2022-10-12T15:46:13.875Z,13.86
2022-10-12T15:48:40.700Z,13.70
2022-10-12T15:51:16.695Z,13.64
2022-10-12T15:53:45.453Z,13.60
2022-10-12T15:56:14.508Z,13.51
2022-10-12T15:58:41.680Z,13.38
2022-10-12T16:01:12.959Z,13.27
2022-10-12T16:03:40.036Z,13.13
2022-10-12T16:06:07.427Z,13.04
2022-10-12T16:08:34.578Z,12.93
2022-10-12T16:11:06.375Z,12.81
2022-10-12T16:13:33.652Z,12.66
2022-10-12T16:16:00.570Z,12.57
2022-10-12T16:18:27.338Z,12.38
2022-10-12T16:20:54.246Z,12.24
2022-10-12T16:23:24.850Z,12.17
2022-10-12T16:25:51.691Z,12.07
2022-10-12T16:28:18.756Z,11.86
2022-10-12T16:30:45.460Z,11.89
2022-10-12T16:33:12.112Z,11.86
2022-10-12T16:35:40.056Z,11.81
2022-10-12T16:38:06.825Z,11.75
2022-10-12T16:40:33.622Z,11.69
2022-10-12T16:43:00.389Z,11.62
2022-10-12T16:45:27.257Z,11.56
2022-10-12T16:47:54.114Z,11.49
2022-10-12T16:50:23.462Z,11.29
2022-10-12T16:52:50.646Z,11.33
2022-10-12T16:55:18.124Z,11.29
2022-10-12T16:57:45.214Z,11.13
2022-10-12T17:00:17.125Z,10.79
2022-10-12T17:02:43.802Z,10.87
2022-10-12T17:05:10.561Z,10.86
2022-10-12T17:07:37.318Z,10.84
2022-10-12T17:10:04.594Z,10.80
2022-10-12T17:12:32.524Z,10.77
2022-10-12T17:14:59.287Z,10.59
2022-10-12T17:17:26.289Z,10.62
2022-10-12T17:19:53.129Z,10.64
2022-10-12T17:22:19.911Z,10.66
2022-10-12T17:24:46.735Z,10.66
2022-10-12T17:27:14.503Z,10.57
2022-10-12T17:29:41.580Z,10.43
2022-10-12T17:32:13.015Z,10.29
2022-10-12T17:34:42.774Z,10.25
2022-10-12T17:37:13.767Z,10.24
2022-10-12T17:39:43.536Z,10.22
2022-10-12T17:42:10.996Z,10.24
2022-10-12T17:44:38.094Z,10.18
2022-10-12T17:47:04.927Z,10.07
2022-10-12T17:49:31.710Z,10.07
2022-10-12T17:51:58.465Z,10.13
2022-10-12T17:54:26.755Z,10.51
2022-10-12T17:56:57.325Z,10.38
2022-10-12T17:59:24.753Z,10.16
2022-10-12T18:01:52.602Z,10.02
2022-10-12T18:04:20.382Z,9.93
2022-10-12T18:06:47.085Z,9.79
2022-10-12T18:09:14.552Z,9.73
2022-10-12T18:11:41.444Z,10.12
2022-10-12T18:14:09.734Z,9.97
2022-10-12T18:16:37.192Z,9.87
2022-10-12T18:19:07.593Z,9.95
2022-10-12T18:21:35.455Z,9.72
2022-10-12T18:24:05.747Z,9.67
2022-10-12T18:26:33.677Z,9.60
2022-10-12T18:29:01.810Z,9.66
2022-10-12T18:31:30.037Z,9.50
2022-10-12T18:33:57.338Z,9.29
2022-10-12T18:36:25.082Z,9.33
2022-10-12T18:38:52.000Z,9.32
2022-10-12T18:41:22.536Z,9.24
2022-10-12T18:43:55.317Z,9.22
2022-10-12T18:46:22.195Z,9.20
2022-10-12T18:48:48.993Z,9.19
2022-10-12T18:51:26.883Z,9.17
2022-10-12T18:53:54.227Z,9.07
2022-10-12T18:56:22.185Z,9.07
2022-10-12T18:58:49.431Z,9.02
2022-10-12T19:01:21.424Z,8.99
2022-10-12T19:03:48.686Z,8.97
2022-10-12T19:06:21.077Z,8.69
2022-10-12T19:08:48.647Z,8.59
2022-10-12T19:11:17.775Z,8.71
2022-10-12T19:13:53.267Z,8.47
2022-10-12T19:16:20.593Z,8.59
2022-10-12T19:18:47.569Z,8.39
2022-10-12T19:21:17.146Z,8.40
2022-10-12T19:23:45.696Z,8.42
2022-10-12T19:26:15.531Z,8.37
2022-10-12T19:28:42.783Z,8.43
2022-10-12T19:31:12.938Z,8.43
2022-10-12T19:33:40.054Z,8.31
2022-10-12T19:36:09.175Z,8.34
2022-10-12T19:38:38.373Z,8.33
2022-10-12T19:41:05.982Z,8.33
2022-10-12T19:43:35.719Z,8.30
2022-10-12T19:46:10.653Z,8.26
2022-10-12T19:48:38.524Z,8.23
2022-10-12T19:51:08.107Z,8.20
2022-10-12T19:53:34.717Z,8.23
2022-10-12T19:56:04.357Z,8.20
2022-10-12T19:58:31.370Z,8.14
2022-10-12T20:01:07.650Z,8.07
2022-10-12T20:03:35.538Z,8.08
2022-10-12T20:06:06.374Z,8.11
2022-10-12T20:08:33.399Z,8.17
2022-10-12T20:11:00.178Z,8.14
2022-10-12T20:13:26.930Z,8.05
2022-10-12T20:15:55.041Z,7.99
2022-10-12T20:18:22.513Z,7.90
2022-10-12T20:20:49.631Z,7.73
2022-10-12T20:23:17.514Z,7.72
2022-10-12T20:25:46.782Z,7.71
2022-10-12T20:28:14.279Z,7.72
2022-10-12T20:30:41.658Z,7.68
2022-10-12T20:33:11.947Z,7.67
2022-10-12T20:35:45.739Z,7.65
2022-10-12T20:38:12.380Z,7.66
2022-10-12T20:40:40.126Z,7.67
2022-10-12T20:43:06.842Z,7.64
2022-10-12T20:45:37.709Z,7.63
2022-10-12T20:48:05.103Z,7.61
2022-10-12T20:50:31.838Z,7.63
2022-10-12T20:52:58.627Z,7.56
2022-10-12T20:55:25.966Z,7.68
2022-10-12T20:57:52.599Z,7.65
2022-10-12T21:00:19.450Z,7.68
2022-10-12T21:02:46.049Z,7.67
2022-10-12T21:05:12.731Z,7.66
2022-10-12T21:07:39.387Z,7.79
2022-10-12T21:10:06.833Z,7.82
2022-10-12T21:12:33.603Z,7.93
2022-10-12T21:15:00.329Z,7.79
2022-10-12T21:17:27.012Z,7.56
2022-10-12T21:19:53.749Z,7.64
2022-10-12T21:22:20.839Z,7.62
2022-10-12T21:24:47.678Z,7.59
2022-10-12T21:27:14.434Z,7.63
2022-10-12T21:29:41.078Z,7.64
2022-10-12T21:32:07.883Z,7.64
2022-10-12T21:34:34.541Z,7.64
2022-10-12T21:37:01.470Z,7.65
2022-10-12T21:39:28.196Z,7.61
2022-10-12T21:41:54.870Z,7.61
2022-10-12T21:44:21.496Z,7.61
2022-10-12T21:46:48.160Z,7.59
2022-10-12T21:49:14.824Z,7.61
2022-10-12T21:51:41.543Z,7.59
2022-10-12T21:54:08.626Z,7.92
2022-10-12T21:56:36.409Z,7.94
2022-10-12T21:59:04.709Z,7.97
2022-10-12T22:01:37.414Z,8.20
2022-10-12T22:04:07.676Z,8.26
2022-10-12T22:06:34.864Z,8.36
2022-10-12T22:09:05.921Z,8.15
2022-10-12T22:11:34.462Z,8.06
2022-10-12T22:14:05.127Z,8.01
2022-10-12T22:16:32.226Z,8.05
2022-10-12T22:19:00.910Z,8.12
2022-10-12T22:21:28.238Z,8.10
2022-10-12T22:23:54.858Z,8.02
2022-10-12T22:26:23.150Z,7.96
2022-10-12T22:28:49.967Z,7.94
2022-10-12T22:31:19.055Z,7.93
2022-10-12T22:33:45.822Z,7.91
2022-10-12T22:36:13.827Z,7.89
2022-10-12T22:38:41.323Z,7.86
2022-10-12T22:41:12.379Z,7.78
2022-10-12T22:43:40.680Z,7.77
2022-10-12T22:46:08.084Z,7.75
2022-10-12T22:48:36.275Z,7.74
2022-10-12T22:51:04.170Z,7.74
2022-10-12T22:53:30.875Z,7.73
2022-10-12T22:56:07.062Z,7.74
2022-10-12T22:58:34.785Z,7.75
2022-10-12T23:01:10.979Z,7.85
2022-10-12T23:03:38.566Z,7.92
2022-10-12T23:06:06.997Z,8.00
2022-10-12T23:08:34.545Z,8.08
2022-10-12T23:11:07.764Z,8.12
2022-10-12T23:13:35.010Z,8.27
2022-10-12T23:16:07.564Z,8.44
2022-10-12T23:18:34.742Z,8.49
2022-10-12T23:21:06.285Z,8.58
2022-10-12T23:23:34.923Z,8.67
2022-10-12T23:26:03.768Z,8.84
2022-10-12T23:28:30.821Z,9.00
2022-10-12T23:30:57.754Z,9.14
2022-10-12T23:33:24.498Z,9.11
2022-10-12T23:35:58.953Z,9.14
2022-10-12T23:38:28.086Z,9.35
2022-10-12T23:40:54.933Z,9.24
2022-10-12T23:43:22.006Z,9.17
2022-10-12T23:45:48.794Z,9.12
2022-10-12T23:48:16.069Z,9.21
2022-10-12T23:50:42.960Z,9.32
2022-10-12T23:53:10.199Z,9.21
2022-10-12T23:55:36.915Z,9.27
2022-10-12T23:58:04.178Z,9.51
